Time;durP1;ratioP1;P1;durP2;ratioP2;P2;SDS_P1;SDS_P2;PMS_P1;PMS_P2;Temp;Humidity;BMP_temperature;BMP_pressure;BME280_temperature;BME280_humidity;BME280_pressure;Samples;Min_cycle;Max_cycle;Signal;HPM_P1;HPM_P2
2023/09/02 00:00:55;;;;;;;18.95;16.95;;;;;;;18.32;100.00;101380.47;3605404;39;20062;-67
2023/09/02 00:03:21;;;;;;;20.42;17.65;;;;;;;18.38;100.00;101386.38;3603143;39;20059;-66
2023/09/02 00:05:46;;;;;;;19.02;16.08;;;;;;;18.39;100.00;101386.22;3606142;39;20056;-66
2023/09/02 00:08:12;;;;;;;18.20;16.40;;;;;;;18.38;100.00;101386.38;3604455;39;20055;-66
2023/09/02 00:10:37;;;;;;;18.90;17.02;;;;;;;18.39;100.00;101379.94;3604430;39;20058;-66
2023/09/02 00:13:03;;;;;;;18.00;16.20;;;;;;;18.39;100.00;101385.38;3604243;39;20051;-65
2023/09/02 00:15:29;;;;;;;19.08;16.70;;;;;;;18.31;100.00;101377.88;3605041;39;20106;-65
2023/09/02 00:17:55;;;;;;;19.05;17.20;;;;;;;18.41;100.00;101388.84;3605996;39;20066;-64
2023/09/02 00:20:21;;;;;;;17.70;15.90;;;;;;;18.42;100.00;101382.38;3605367;39;20063;-66
2023/09/02 00:22:47;;;;;;;17.35;15.65;;;;;;;18.23;100.00;101354.03;3604852;39;20047;-66
2023/09/02 00:25:12;;;;;;;18.95;16.95;;;;;;;18.41;100.00;101383.41;3595373;39;20128;-65
2023/09/02 00:27:38;;;;;;;17.70;15.80;;;;;;;18.31;100.00;101367.84;3601919;39;21191;-65
2023/09/02 00:30:05;;;;;;;17.25;15.57;;;;;;;18.18;100.00;101350.00;3596213;39;20055;-65
2023/09/02 00:32:31;;;;;;;17.42;15.48;;;;;;;18.38;100.00;101386.38;3607906;39;20288;-67
2023/09/02 00:34:56;;;;;;;17.85;15.95;;;;;;;18.36;100.00;101382.91;3603336;39;20053;-67
2023/09/02 00:37:22;;;;;;;17.70;15.88;;;;;;;18.37;100.00;101390.97;3604596;39;20059;-67
2023/09/02 00:39:49;;;;;;;17.27;15.48;;;;;;;18.41;100.00;101397.88;3604697;39;20058;-65
2023/09/02 00:42:21;;;;;;;16.58;14.88;;;;;;;18.22;100.00;101365.06;3603058;39;20059;-65
2023/09/02 00:44:47;;;;;;;17.38;15.05;;;;;;;18.42;100.00;101402.31;3608821;39;20071;-66
2023/09/02 00:47:13;;;;;;;17.30;15.48;;;;;;;18.44;100.00;101396.75;3606474;39;20575;-66
2023/09/02 00:49:39;;;;;;;17.33;15.57;;;;;;;18.42;100.00;101394.13;3605174;39;20056;-65
2023/09/02 00:52:05;;;;;;;17.33;15.63;;;;;;;18.40;100.00;101393.44;3604000;39;20070;-66
2023/09/02 00:54:33;;;;;;;16.75;15.20;;;;;;;18.32;100.00;101377.72;3602579;39;20086;-66
2023/09/02 00:57:00;;;;;;;17.00;15.32;;;;;;;18.43;100.00;101397.75;3603331;39;20048;-66
2023/09/02 00:59:25;;;;;;;16.80;15.20;;;;;;;18.46;100.00;101403.78;3605715;39;20075;-65
2023/09/02 01:01:55;;;;;;;17.67;15.98;;;;;;;18.49;100.00;101400.81;3607075;39;20047;-66
2023/09/02 01:04:21;;;;;;;17.48;15.70;;;;;;;18.48;100.00;101390.03;3593289;39;20080;-65
2023/09/02 01:06:47;;;;;;;17.98;16.10;;;;;;;18.47;100.00;101399.22;3601701;39;20091;-66
2023/09/02 01:09:14;;;;;;;17.15;15.38;;;;;;;18.45;100.00;101396.59;3602179;39;20059;-66
2023/09/02 01:11:39;;;;;;;17.77;15.98;;;;;;;18.48;100.00;101400.91;3602715;39;20062;-65
2023/09/02 01:14:05;;;;;;;17.73;15.93;;;;;;;18.39;100.00;101385.38;3603717;39;20412;-65
2023/09/02 01:16:31;;;;;;;18.75;16.58;;;;;;;18.50;100.00;101398.94;3604778;39;20062;-67
2023/09/02 01:18:58;;;;;;;18.00;16.25;;;;;;;18.45;100.00;101396.59;3602662;39;20051;-65
2023/09/02 01:22:02;;;;;;;17.33;15.63;;;;;;;18.49;100.00;101405.34;3606196;39;20054;-66
2023/09/02 01:25:20;;;;;;;17.25;15.65;;;;;;;18.47;100.00;101407.38;3602941;39;20063;-65
2023/09/02 01:28:16;;;;;;;17.27;15.65;;;;;;;18.46;100.00;101409.25;3603311;39;20122;-65
2023/09/02 01:30:47;;;;;;;18.60;16.63;;;;;;;18.35;100.00;101381.19;3602765;39;20384;-66
2023/09/02 01:33:17;;;;;;;19.45;17.38;;;;;;;18.47;100.00;101404.66;3603712;39;20059;-65
2023/09/02 01:35:45;;;;;;;18.15;16.35;;;;;;;18.50;100.00;101410.69;3605016;39;20694;-65
2023/09/02 01:38:14;;;;;;;18.05;16.35;;;;;;;18.45;100.00;101393.03;3603639;39;20063;-64
2023/09/02 01:40:44;;;;;;;18.10;16.30;;;;;;;18.41;100.00;101399.72;3602843;39;20055;-64
2023/09/02 01:43:14;;;;;;;18.15;16.40;;;;;;;18.43;100.00;101404.06;3606240;39;20059;-64
2023/09/02 01:45:41;;;;;;;17.92;16.17;;;;;;;18.01;100.00;101333.22;3602696;39;20406;-63
2023/09/02 01:48:07;;;;;;;18.13;16.33;;;;;;;18.53;100.00;101420.47;3605070;39;20094;-64
2023/09/02 01:50:38;;;;;;;17.40;15.60;;;;;;;18.53;100.00;101412.28;3608026;39;20378;-64
2023/09/02 01:53:05;;;;;;;18.25;16.45;;;;;;;18.54;100.00;101416.72;3601036;39;20048;-64
2023/09/02 01:55:32;;;;;;;17.95;16.05;;;;;;;18.54;100.00;101422.19;3605142;39;20368;-64
2023/09/02 01:57:59;;;;;;;17.90;15.75;;;;;;;18.55;100.00;101423.91;3604193;39;20098;-64
2023/09/02 02:00:25;;;;;;;17.48;15.68;;;;;;;18.55;100.00;101435.69;3603958;39;20110;-64
2023/09/02 02:02:54;;;;;;;17.63;15.73;;;;;;;18.57;100.00;101421.91;3603145;39;20059;-65
2023/09/02 02:05:37;;;;;;;16.65;15.05;;;;;;;18.55;100.00;101423.91;3604294;39;20047;-64
2023/09/02 02:08:11;;;;;;;22.58;15.95;;;;;;;18.57;100.00;101432.81;3604560;39;20066;-66
2023/09/02 02:10:41;;;;;;;20.23;15.68;;;;;;;18.58;100.00;101425.50;3605195;39;20062;-66
2023/09/02 02:13:07;;;;;;;18.15;16.35;;;;;;;18.58;100.00;101425.50;3602415;39;20050;-64
2023/09/02 02:15:32;;;;;;;16.52;14.85;;;;;;;18.55;100.00;101432.06;3602642;39;20375;-65
2023/09/02 02:17:58;;;;;;;16.80;15.10;;;;;;;18.56;100.00;101425.66;3603399;39;20087;-66
2023/09/02 02:20:38;;;;;;;18.38;16.52;;;;;;;18.55;100.00;101432.06;3607093;39;20445;-65
2023/09/02 02:23:06;;;;;;;17.25;15.40;;;;;;;18.54;100.00;101431.19;3601574;39;20060;-65
2023/09/02 02:25:32;;;;;;;17.33;15.32;;;;;;;18.39;100.00;101410.72;3603545;39;20145;-64
2023/09/02 02:27:57;;;;;;;17.23;15.00;;;;;;;18.50;100.00;101443.38;3597910;39;20385;-66
2023/09/02 02:30:23;;;;;;;16.33;14.35;;;;;;;18.50;100.00;101437.91;3603970;39;20055;-66
2023/09/02 02:32:48;;;;;;;16.10;14.45;;;;;;;18.50;100.00;101435.19;3602644;39;20066;-66
2023/09/02 02:35:14;;;;;;;16.58;14.57;;;;;;;18.48;100.00;101441.75;3604095;39;20416;-66
2023/09/02 02:37:40;;;;;;;16.75;14.95;;;;;;;18.50;100.00;101446.09;3603017;39;20059;-66
2023/09/02 02:40:06;;;;;;;15.07;13.40;;;;;;;18.51;100.00;101439.63;3603691;39;20051;-66
2023/09/02 02:42:32;;;;;;;15.05;13.55;;;;;;;18.50;100.00;101434.34;3601477;39;20051;-65
2023/09/02 02:44:57;;;;;;;16.40;14.63;;;;;;;18.50;100.00;101442.50;3604128;39;20167;-65
2023/09/02 02:47:23;;;;;;;15.18;12.52;;;;;;;18.50;100.00;101447.94;3603558;39;20503;-66
2023/09/02 02:49:49;;;;;;;13.43;12.13;;;;;;;18.48;100.00;101439.91;3601955;39;20070;-66
2023/09/02 02:52:14;;;;;;;12.50;11.02;;;;;;;18.48;100.00;101444.47;3604218;39;20059;-66
2023/09/02 02:54:40;;;;;;;12.90;11.60;;;;;;;18.48;100.00;101444.47;3599287;39;20063;-66
2023/09/02 02:57:06;;;;;;;11.30;10.18;;;;;;;18.49;100.00;101444.38;3601159;39;20386;-67
2023/09/02 02:59:31;;;;;;;11.18;10.10;;;;;;;18.49;100.00;101452.53;3603947;39;20378;-67
2023/09/02 03:01:57;;;;;;;11.10;10.00;;;;;;;18.49;100.00;101452.53;3601344;39;20063;-65
2023/09/02 03:04:22;;;;;;;10.57;9.57;;;;;;;18.49;100.00;101446.19;3601747;39;20381;-66
2023/09/02 03:06:48;;;;;;;11.55;9.63;;;;;;;18.47;100.00;101440.91;3593789;39;20406;-65
2023/09/02 03:09:14;;;;;;;11.35;9.75;;;;;;;18.46;100.00;101450.06;3604864;39;20050;-66
2023/09/02 03:11:40;;;;;;;12.25;9.88;;;;;;;18.43;100.00;101430.41;3601245;39;20055;-66
2023/09/02 03:14:05;;;;;;;11.18;10.02;;;;;;;18.44;100.00;101440.31;3603375;39;20066;-65
2023/09/02 03:16:31;;;;;;;10.20;9.20;;;;;;;18.43;100.00;101430.41;3601539;39;20054;-66
2023/09/02 03:18:56;;;;;;;10.82;9.18;;;;;;;18.41;100.00;101435.13;3601832;39;20059;-67
2023/09/02 03:21:22;;;;;;;10.05;9.10;;;;;;;18.40;100.00;101447.88;3601339;39;20081;-66
2023/09/02 03:23:48;;;;;;;11.25;8.38;;;;;;;18.38;100.00;101447.13;3604454;39;20496;-66
2023/09/02 03:26:15;;;;;;;9.90;8.93;;;;;;;18.36;100.00;101448.25;3602210;39;20058;-65
2023/09/02 03:28:41;;;;;;;9.60;8.60;;;;;;;18.31;100.00;101449.50;3603533;39;20123;-66
2023/09/02 03:31:09;;;;;;;11.60;8.57;;;;;;;18.30;100.00;101446.94;3602474;39;20058;-66
2023/09/02 03:33:34;;;;;;;10.32;8.45;;;;;;;18.05;100.00;101401.88;3601220;39;20063;-66
2023/09/02 03:36:00;;;;;;;10.50;8.55;;;;;;;18.25;100.00;101441.84;3605502;39;20305;-66
2023/09/02 03:38:27;;;;;;;10.82;8.82;;;;;;;18.24;100.00;101451.03;3605108;39;20062;-65
2023/09/02 03:40:53;;;;;;;8.90;8.10;;;;;;;18.21;100.00;101453.16;3604421;39;20320;-66
2023/09/02 03:43:18;;;;;;;11.10;7.95;;;;;;;18.22;100.00;101455.72;3603441;39;20059;-65
2023/09/02 03:45:44;;;;;;;11.70;8.05;;;;;;;18.22;100.00;101463.88;3603671;39;20058;-65
2023/09/02 03:48:09;;;;;;;8.25;7.45;;;;;;;18.22;100.00;101472.06;3605605;39;20052;-65
2023/09/02 03:51:11;;;;;;;8.98;7.97;;;;;;;18.18;100.00;101465.16;3604633;39;20051;-66
2023/09/02 03:53:37;;;;;;;8.73;7.25;;;;;;;17.77;100.00;101400.59;3603815;39;20052;-66
2023/09/02 03:56:04;;;;;;;9.00;7.45;;;;;;;18.23;100.00;101473.78;3602802;39;20051;-66
2023/09/02 03:58:30;;;;;;;8.35;6.90;;;;;;;18.25;100.00;101477.25;3602933;39;20408;-66
2023/09/02 04:00:57;;;;;;;8.05;6.95;;;;;;;18.23;100.00;101468.31;3601708;39;20484;-66
2023/09/02 04:03:24;;;;;;;9.20;7.40;;;;;;;18.22;100.00;101466.59;3596911;39;20665;-66
2023/09/02 04:05:50;;;;;;;7.55;6.32;;;;;;;18.23;100.00;101460.16;3601726;39;20120;-66
2023/09/02 04:08:21;;;;;;;11.82;7.00;;;;;;;18.22;100.00;101463.88;3601675;39;20081;-66
2023/09/02 04:10:56;;;;;;;7.57;6.80;;;;;;;18.21;100.00;101464.88;3602094;39;20063;-65
2023/09/02 04:13:26;;;;;;;7.40;6.70;;;;;;;18.21;100.00;101475.78;3604335;39;20082;-65
2023/09/02 04:16:02;;;;;;;8.63;6.60;;;;;;;18.21;100.00;101470.34;3601982;39;20283;-65
2023/09/02 04:18:30;;;;;;;9.05;6.88;;;;;;;18.09;100.00;101446.88;3602744;39;20059;-65
2023/09/02 04:20:56;;;;;;;7.25;6.55;;;;;;;18.20;100.00;101463.13;3603516;39;20131;-66
2023/09/02 04:23:22;;;;;;;7.03;6.32;;;;;;;18.21;100.00;101470.34;3603426;39;20282;-66
2023/09/02 04:25:52;;;;;;;8.23;6.60;;;;;;;18.22;100.00;101468.47;3602455;39;20055;-65
2023/09/02 04:28:19;;;;;;;7.60;6.57;;;;;;;18.24;100.00;101475.53;3604206;39;20055;-65
2023/09/02 04:30:46;;;;;;;6.95;6.32;;;;;;;18.24;100.00;101475.53;3595071;39;20135;-66
2023/09/02 04:33:14;;;;;;;6.95;6.32;;;;;;;18.10;100.00;101454.03;3603743;39;20060;-66
2023/09/02 04:35:43;;;;;;;7.65;6.03;;;;;;;18.22;100.00;101477.50;3603916;39;20362;-65
2023/09/02 04:38:10;;;;;;;7.22;6.20;;;;;;;18.20;100.00;101479.47;3604798;39;20048;-64
2023/09/02 04:40:41;;;;;;;7.72;6.97;;;;;;;18.15;100.00;101476.28;3601983;39;20070;-65
2023/09/02 04:43:10;;;;;;;8.38;6.15;;;;;;;18.21;100.00;101485.81;3603563;39;20069;-65
2023/09/02 04:45:39;;;;;;;7.50;5.85;;;;;;;18.20;100.00;101478.59;3604390;39;20059;-65
2023/09/02 04:48:07;;;;;;;8.18;6.20;;;;;;;18.19;100.00;101483.19;3601627;39;20161;-66
2023/09/02 04:50:35;;;;;;;8.70;6.35;;;;;;;17.96;100.00;101451.63;3602314;39;20378;-65
2023/09/02 04:53:02;;;;;;;6.90;6.20;;;;;;;18.16;100.00;101488.88;3603751;39;20447;-65
2023/09/02 04:55:28;;;;;;;6.38;5.57;;;;;;;18.18;100.00;101492.38;3606116;39;20073;-65
2023/09/02 04:57:58;;;;;;;6.97;6.38;;;;;;;18.16;100.00;101496.19;3606441;39;20284;-65
2023/09/02 05:00:27;;;;;;;7.00;6.38;;;;;;;18.17;100.00;101496.06;3604657;39;20468;-64
2023/09/02 05:02:53;;;;;;;10.18;6.55;;;;;;;18.17;100.00;101503.34;3603952;39;20064;-63
2023/09/02 05:05:23;;;;;;;7.10;6.38;;;;;;;18.15;100.00;101484.44;3601892;39;20407;-63
2023/09/02 05:07:49;;;;;;;8.55;6.35;;;;;;;18.07;100.00;101489.66;3602317;39;20359;-63
2023/09/02 05:10:17;;;;;;;7.03;6.43;;;;;;;18.14;100.00;101500.88;3602340;39;20063;-63
2023/09/02 05:12:42;;;;;;;7.20;6.50;;;;;;;18.14;100.00;101496.34;3605358;39;20051;-63
2023/09/02 05:15:09;;;;;;;6.88;6.20;;;;;;;17.90;100.00;101455.69;3604235;39;20151;-64
2023/09/02 05:17:36;;;;;;;6.75;6.10;;;;;;;18.09;100.00;101504.00;3604709;39;20136;-64
2023/09/02 05:20:04;;;;;;;9.07;5.95;;;;;;;18.09;100.00;101504.00;3604486;39;20063;-63
2023/09/02 05:22:30;;;;;;;7.13;6.43;;;;;;;17.93;100.00;101487.22;3606745;39;20079;-63
2023/09/02 05:24:56;;;;;;;6.32;5.82;;;;;;;18.09;100.00;101518.47;3606248;39;20055;-63
2023/09/02 05:27:22;;;;;;;7.97;5.90;;;;;;;18.09;100.00;101520.34;3595391;39;20055;-64
2023/09/02 05:29:49;;;;;;;6.68;5.97;;;;;;;18.09;100.00;101531.22;3605775;39;20058;-63
2023/09/02 05:32:17;;;;;;;7.30;5.80;;;;;;;18.05;100.00;101524.31;3604358;39;20057;-62
2023/09/02 05:34:43;;;;;;;8.18;6.53;;;;;;;18.05;100.00;101529.75;3603416;39;20092;-63
2023/09/02 05:37:09;;;;;;;8.43;6.43;;;;;;;17.99;100.00;101536.56;3606552;39;20051;-63
2023/09/02 05:39:35;;;;;;;8.32;6.72;;;;;;;18.01;100.00;101547.28;3606866;39;20061;-64
2023/09/02 05:42:00;;;;;;;9.05;6.72;;;;;;;17.82;100.00;101520.72;3602671;39;20078;-63
2023/09/02 05:44:26;;;;;;;8.30;6.50;;;;;;;18.02;100.00;101540.88;3605650;39;20067;-64
2023/09/02 05:46:52;;;;;;;7.57;6.25;;;;;;;18.01;100.00;101541.84;3601739;39;20054;-63
2023/09/02 05:49:17;;;;;;;7.40;6.70;;;;;;;18.00;100.00;101541.00;3603890;39;20378;-63
2023/09/02 05:51:43;;;;;;;7.72;6.95;;;;;;;18.05;100.00;101540.63;3601597;39;20522;-63
2023/09/02 05:54:09;;;;;;;7.57;6.82;;;;;;;18.08;100.00;101532.22;3603287;39;20334;-63
2023/09/02 05:56:38;;;;;;;8.43;6.70;;;;;;;18.00;100.00;101521.94;3603293;39;20067;-63
2023/09/02 05:59:05;;;;;;;9.98;7.30;;;;;;;18.15;100.00;101538.88;3604047;39;20047;-63
2023/09/02 06:01:32;;;;;;;8.13;7.32;;;;;;;18.17;100.00;101542.31;3602821;39;20059;-62
2023/09/02 06:03:58;;;;;;;7.45;6.85;;;;;;;18.15;100.00;101552.47;3605418;39;20418;-63
2023/09/02 06:06:24;;;;;;;9.40;7.50;;;;;;;18.08;100.00;101519.47;3593143;39;20299;-63
2023/09/02 06:08:50;;;;;;;8.98;7.30;;;;;;;18.26;100.00;101547.00;3603713;39;20051;-63
2023/09/02 06:11:16;;;;;;;9.18;8.13;;;;;;;18.29;100.00;101546.75;3602196;39;20058;-64
2023/09/02 06:13:41;;;;;;;9.77;7.55;;;;;;;18.30;100.00;101551.22;3603453;39;20047;-63
2023/09/02 06:16:08;;;;;;;10.50;7.70;;;;;;;18.37;100.00;101557.00;3604683;39;20137;-63
2023/09/02 06:18:35;;;;;;;8.23;7.40;;;;;;;18.33;100.00;101553.69;3602122;39;20090;-64
2023/09/02 06:21:21;;;;;;;11.90;8.05;;;;;;;18.42;100.00;101567.50;3604413;39;20139;-62
2023/09/02 06:23:46;;;;;;;8.40;7.60;;;;;;;18.45;100.00;101568.13;3601477;39;20051;-64
2023/09/02 06:26:13;;;;;;;8.75;7.25;;;;;;;18.48;100.00;101570.59;3602862;39;20066;-64
2023/09/02 06:28:40;;;;;;;9.10;7.75;;;;;;;18.51;100.00;101575.78;3602142;39;20078;-64
2023/09/02 06:31:10;;;;;;;8.25;7.45;;;;;;;18.55;100.00;101581.81;3602936;39;20070;-64
2023/09/02 06:33:36;;;;;;;10.35;8.23;;;;;;;18.56;100.00;101589.03;3602670;39;20055;-63
2023/09/02 06:36:14;;;;;;;8.27;7.50;;;;;;;18.49;100.00;101568.72;3601090;39;20098;-63
2023/09/02 06:38:40;;;;;;;8.80;7.85;;;;;;;18.65;100.00;101592.81;3603750;39;20058;-63
2023/09/02 06:41:15;;;;;;;9.20;7.78;;;;;;;18.68;100.00;101598.88;3603098;39;20051;-63
2023/09/02 06:43:42;;;;;;;9.30;7.50;;;;;;;18.72;100.00;101607.66;3600551;39;20054;-62
2023/09/02 06:46:13;;;;;;;11.02;8.02;;;;;;;18.63;100.00;101589.38;3600951;39;20317;-63
2023/09/02 06:48:39;;;;;;;7.93;7.22;;;;;;;18.77;100.00;101614.50;3602253;39;20063;-63
2023/09/02 06:51:05;;;;;;;9.13;8.23;;;;;;;18.75;100.00;101616.47;3599655;39;20478;-63
2023/09/02 06:53:30;;;;;;;9.85;8.95;;;;;;;18.82;100.00;101621.41;3601963;39;20071;-63
2023/09/02 06:55:56;;;;;;;10.70;8.55;;;;;;;18.88;100.00;101631.78;3603633;39;20066;-63
2023/09/02 06:58:21;;;;;;;11.68;9.85;;;;;;;18.93;100.00;101634.97;3601579;39;20074;-62
2023/09/02 07:00:48;;;;;;;11.07;9.90;;;;;;;19.01;100.00;101638.78;3601907;39;20065;-63
2023/09/02 07:03:14;;;;;;;11.25;10.15;;;;;;;19.08;100.00;101644.59;3601540;39;20063;-63
2023/09/02 07:05:40;;;;;;;11.40;10.20;;;;;;;19.11;100.00;101646.19;3604728;39;20060;-63
2023/09/02 07:08:06;;;;;;;13.15;10.18;;;;;;;19.12;100.00;101646.03;3607827;39;20055;-64
2023/09/02 07:10:31;;;;;;;10.40;9.20;;;;;;;19.09;100.00;101651.75;3604960;39;20053;-62
2023/09/02 07:12:57;;;;;;;11.18;10.07;;;;;;;19.13;100.00;101664.16;3603992;39;20116;-62
2023/09/02 07:15:22;;;;;;;12.48;10.25;;;;;;;19.17;100.00;101665.63;3604706;39;20340;-65
2023/09/02 07:17:48;;;;;;;10.48;9.43;;;;;;;19.07;100.00;101651.03;3602956;39;20078;-65
2023/09/02 07:20:14;;;;;;;11.27;10.05;;;;;;;19.22;100.00;101662.50;3601966;39;20047;-65
2023/09/02 07:22:39;;;;;;;12.35;11.10;;;;;;;19.28;100.00;101669.28;3603552;39;20058;-66
2023/09/02 07:25:08;;;;;;;14.23;11.25;;;;;;;19.36;100.00;101669.50;3602425;39;20604;-65
2023/09/02 07:27:34;;;;;;;12.20;10.98;;;;;;;19.36;100.00;101670.38;3603677;39;20042;-65
2023/09/02 07:30:00;;;;;;;13.32;12.02;;;;;;;19.13;100.00;101619.69;3602200;39;20103;-65
2023/09/02 07:32:26;;;;;;;12.98;11.07;;;;;;;19.43;100.00;101676.16;3603351;39;20167;-65
2023/09/02 07:34:52;;;;;;;12.93;10.65;;;;;;;19.47;99.95;101669.44;3602377;39;20060;-66
2023/09/02 07:37:17;;;;;;;11.77;10.65;;;;;;;19.51;100.00;101673.66;3604651;39;20123;-66
2023/09/02 07:39:43;;;;;;;11.88;10.60;;;;;;;19.52;100.00;101672.63;3601439;39;20058;-66
2023/09/02 07:42:09;;;;;;;11.98;10.77;;;;;;;19.54;100.00;101678.84;3594286;39;20043;-66
2023/09/02 07:44:34;;;;;;;11.88;10.68;;;;;;;19.60;100.00;101678.31;3607394;39;20050;-66
2023/09/02 07:47:00;;;;;;;11.60;10.15;;;;;;;19.65;100.00;101686.97;3604296;39;20058;-65
2023/09/02 07:49:25;;;;;;;12.30;11.07;;;;;;;19.71;100.00;101686.44;3605950;39;20508;-65
2023/09/02 07:51:51;;;;;;;12.70;11.38;;;;;;;19.73;100.00;101682.69;3604228;39;20059;-66
2023/09/02 07:54:17;;;;;;;11.27;10.18;;;;;;;19.83;100.00;101689.13;3605302;39;20059;-66
2023/09/02 07:56:43;;;;;;;13.50;10.50;;;;;;;19.92;100.00;101693.78;3603461;39;20379;-65
2023/09/02 07:59:09;;;;;;;11.90;10.70;;;;;;;20.00;100.00;101690.34;3602809;39;20111;-65
2023/09/02 08:01:34;;;;;;;11.95;10.25;;;;;;;20.01;100.00;101701.13;3600969;39;20058;-65
2023/09/02 08:04:00;;;;;;;11.05;9.85;;;;;;;20.04;99.82;101709.03;3603284;39;20087;-66
2023/09/02 08:06:25;;;;;;;11.20;10.10;;;;;;;20.08;100.00;101699.59;3604485;39;20078;-64
2023/09/02 08:08:54;;;;;;;11.70;10.70;;;;;;;20.13;100.00;101702.78;3602652;39;20130;-65
2023/09/02 08:11:19;;;;;;;12.02;10.93;;;;;;;20.16;99.38;101707.09;3601559;39;20075;-66
2023/09/02 08:13:45;;;;;;;11.13;10.02;;;;;;;20.11;97.87;101704.78;3603946;39;20098;-66
2023/09/02 08:16:11;;;;;;;13.48;11.10;;;;;;;20.14;97.47;101712.72;3602011;39;20059;-66
2023/09/02 08:18:37;;;;;;;14.32;12.23;;;;;;;20.15;98.33;101705.38;3602025;39;20401;-65
2023/09/02 08:21:09;;;;;;;13.18;12.00;;;;;;;20.13;98.66;101702.78;3603172;39;20279;-65
2023/09/02 08:23:35;;;;;;;14.88;13.48;;;;;;;20.22;99.13;101716.63;3601150;39;20378;-66
2023/09/02 08:26:13;;;;;;;14.00;12.80;;;;;;;20.04;100.00;101670.81;3603503;39;20055;-65
2023/09/02 08:28:40;;;;;;;13.50;12.20;;;;;;;20.26;97.36;101708.00;3604896;39;20058;-65
2023/09/02 08:31:05;;;;;;;13.30;12.10;;;;;;;20.25;97.83;101702.69;3607253;39;20111;-66
2023/09/02 08:33:31;;;;;;;14.85;13.48;;;;;;;20.28;98.60;101707.88;3606345;39;20047;-65
2023/09/02 08:35:57;;;;;;;15.60;14.20;;;;;;;20.26;97.73;101715.34;3603485;39;20094;-65
2023/09/02 08:38:22;;;;;;;14.68;13.18;;;;;;;20.27;96.98;101730.75;3603668;39;20067;-66
2023/09/02 08:40:54;;;;;;;15.75;14.30;;;;;;;20.24;97.48;101736.47;3605040;39;20071;-66
2023/09/02 08:43:21;;;;;;;16.60;14.50;;;;;;;20.26;98.67;101734.44;3593932;39;20055;-66
2023/09/02 08:45:53;;;;;;;15.82;14.43;;;;;;;20.29;98.16;101731.44;3603962;39;20431;-66
2023/09/02 08:48:25;;;;;;;15.50;13.88;;;;;;;20.30;97.85;101741.41;3593668;39;20117;-66
2023/09/02 08:50:53;;;;;;;17.17;15.17;;;;;;;20.26;98.43;101716.19;3601933;39;20078;-66
2023/09/02 08:53:24;;;;;;;15.65;14.25;;;;;;;20.52;98.42;101740.34;3603883;39;20094;-67
2023/09/02 08:55:52;;;;;;;16.10;14.57;;;;;;;20.55;97.85;101719.13;3601585;39;20102;-66
2023/09/02 08:58:19;;;;;;;17.05;15.55;;;;;;;20.63;97.29;101716.53;3603427;39;20100;-67
2023/09/02 09:00:48;;;;;;;16.67;15.07;;;;;;;20.86;97.49;101740.91;3604804;39;20062;-66
2023/09/02 09:03:19;;;;;;;18.02;16.13;;;;;;;20.96;97.20;101733.59;3602196;39;20053;-67
2023/09/02 09:05:49;;;;;;;16.17;14.68;;;;;;;20.93;96.75;101712.03;3604942;39;20382;-65
2023/09/02 09:08:16;;;;;;;16.88;15.18;;;;;;;21.14;94.84;101741.13;3603563;39;20074;-66
2023/09/02 09:10:44;;;;;;;17.05;15.32;;;;;;;21.18;94.57;101743.41;3603636;39;20054;-67
2023/09/02 09:13:16;;;;;;;17.40;15.63;;;;;;;21.24;93.85;101750.19;3606399;39;20047;-66
2023/09/02 09:15:43;;;;;;;17.67;15.98;;;;;;;21.23;93.33;101745.75;3604032;39;20061;-67
2023/09/02 09:18:11;;;;;;;17.50;16.00;;;;;;;21.33;93.10;101749.34;3602849;39;20094;-65
2023/09/02 09:20:39;;;;;;;18.77;17.02;;;;;;;21.35;92.58;101755.59;3603841;39;20039;-66
2023/09/02 09:23:09;;;;;;;18.33;16.65;;;;;;;21.33;92.77;101758.41;3606680;39;20063;-66
2023/09/02 09:25:35;;;;;;;19.38;17.48;;;;;;;21.34;92.62;101756.53;3603319;39;20063;-65
2023/09/02 09:28:10;;;;;;;19.60;17.80;;;;;;;21.37;93.17;101763.63;3602526;39;20087;-67
2023/09/02 09:30:36;;;;;;;21.30;19.17;;;;;;;21.28;91.78;101751.63;3603214;39;20091;-66
2023/09/02 09:33:07;;;;;;;20.38;18.58;;;;;;;21.35;91.11;101771.09;3591896;39;20054;-66
2023/09/02 09:35:34;;;;;;;21.40;19.65;;;;;;;21.37;92.02;101772.69;3601908;39;20074;-67
2023/09/02 09:38:01;;;;;;;22.05;20.15;;;;;;;21.22;90.93;101750.34;3603150;39;20039;-66
2023/09/02 09:40:35;;;;;;;22.90;20.90;;;;;;;21.41;91.13;101797.91;3603984;39;20128;-67
2023/09/02 09:43:15;;;;;;;21.67;19.77;;;;;;;21.53;92.06;101792.19;3602791;39;20232;-66
2023/09/02 09:45:51;;;;;;;23.42;21.33;;;;;;;21.42;91.28;101753.16;3603998;39;20054;-67
2023/09/02 09:48:16;;;;;;;18.13;16.63;;;;;;;21.78;89.05;101798.06;3603385;39;20397;-66
2023/09/02 09:50:42;;;;;;;17.90;16.40;;;;;;;21.55;88.87;101734.56;3602934;39;20059;-65
2023/09/02 09:53:09;;;;;;;19.25;17.35;;;;;;;22.07;90.15;101794.44;3605992;39;20057;-64
2023/09/02 09:55:37;;;;;;;19.00;17.50;;;;;;;22.15;87.11;101795.44;3605674;39;20061;-66
2023/09/02 09:58:03;;;;;;;18.20;16.50;;;;;;;22.14;87.54;101790.13;3608311;39;20674;-67
2023/09/02 10:00:30;;;;;;;18.95;17.23;;;;;;;22.21;86.71;101796.78;3607435;39;20135;-65
2023/09/02 10:02:58;;;;;;;18.50;16.90;;;;;;;22.10;87.42;101783.19;3607292;39;20370;-67
2023/09/02 10:05:33;;;;;;;18.00;16.40;;;;;;;22.22;88.44;101795.75;3606045;39;20067;-66
2023/09/02 10:08:03;;;;;;;19.08;17.48;;;;;;;22.26;87.56;101799.91;3603002;39;20113;-67
2023/09/02 10:10:36;;;;;;;18.40;16.90;;;;;;;22.37;87.54;101794.28;3603963;39;20047;-65
2023/09/02 10:13:03;;;;;;;17.05;15.45;;;;;;;22.36;84.82;101792.56;3606995;39;20131;-66
2023/09/02 10:15:30;;;;;;;16.40;15.00;;;;;;;22.35;85.28;101803.66;3605117;39;20055;-66
2023/09/02 10:18:03;;;;;;;17.27;15.82;;;;;;;22.51;85.51;101805.78;3605376;39;20317;-66
2023/09/02 10:20:32;;;;;;;16.83;15.32;;;;;;;22.72;84.93;101820.13;3603795;39;20058;-66
2023/09/02 10:23:10;;;;;;;17.02;15.50;;;;;;;22.57;84.18;101797.81;3603910;39;20120;-67
2023/09/02 10:26:08;;;;;;;18.63;17.08;;;;;;;22.71;84.49;101818.41;3606679;39;20094;-64
2023/09/02 10:28:40;;;;;;;20.13;18.42;;;;;;;22.58;85.11;101799.56;3598494;39;20051;-66
2023/09/02 10:31:34;;;;;;;18.50;17.00;;;;;;;22.58;82.71;101826.97;3603143;39;20052;-68
2023/09/02 10:35:00;;;;;;;18.77;17.27;;;;;;;22.58;84.47;101826.97;3605927;39;20369;-66
2023/09/02 10:37:45;;;;;;;20.10;18.33;;;;;;;22.64;83.89;101833.72;3570565;40;20579;-67
2023/09/02 10:40:20;;;;;;;18.17;16.60;;;;;;;22.64;84.17;101830.97;3603128;39;20075;-66
2023/09/02 10:42:49;;;;;;;18.27;16.65;;;;;;;22.61;83.21;101831.28;3603165;39;20069;-65
2023/09/02 10:45:17;;;;;;;18.08;16.58;;;;;;;22.68;81.92;101832.44;3603414;39;20099;-65
2023/09/02 10:47:44;;;;;;;18.40;16.70;;;;;;;22.73;81.98;101834.72;3602784;39;20538;-66
2023/09/02 10:50:12;;;;;;;18.38;16.70;;;;;;;22.87;83.76;101843.31;3603242;39;20093;-66
2023/09/02 10:52:38;;;;;;;18.25;16.65;;;;;;;22.94;81.78;101828.00;3605148;39;20360;-67
2023/09/02 10:55:08;;;;;;;17.50;15.80;;;;;;;23.10;80.80;101840.22;3603560;39;20062;-66
2023/09/02 10:57:50;;;;;;;20.27;18.45;;;;;;;23.07;79.87;101837.78;3603506;39;20135;-65
2023/09/02 11:00:21;;;;;;;19.67;17.88;;;;;;;23.00;80.35;101839.41;3604721;39;20047;-65
2023/09/02 11:02:53;;;;;;;19.50;17.67;;;;;;;22.92;80.99;101835.47;3603326;39;20063;-66
2023/09/02 11:05:27;;;;;;;19.67;17.83;;;;;;;22.90;82.66;101842.16;3602792;39;20128;-68
2023/09/02 11:07:54;;;;;;;20.25;18.30;;;;;;;22.91;81.89;101844.72;3606270;39;20069;-67
2023/09/02 11:10:22;;;;;;;20.23;18.33;;;;;;;22.90;81.83;101842.16;3604377;39;20058;-66
2023/09/02 11:12:59;;;;;;;21.50;19.50;;;;;;;22.82;81.82;101842.91;3602288;39;20112;-66
2023/09/02 11:15:26;;;;;;;22.20;20.23;;;;;;;22.76;81.92;101848.97;3600572;39;20059;-66